Terminal Aerodrome Forecast
Issued by NWS

Home | Current Version | Previous Version | Text Only | Print | Product List | Glossary On
Versions: 1 2 3 4 5 6 7 8 9 10 11 12 13 14 15 16 17 18 19 20 21
000
FTUS45 KABQ 191600 AAB
TAFTCC
TAF AMD
KTCC 191624Z 1916/2012 14005KT P6SM VCSH FEW021 BKN050
     FM191800 12012KT P6SM VCSH SCT015 OVC040
     FM200400 02007KT P6SM VCSH SCT007 BKN025 OVC040=

USA.gov is the U.S. government's official web portal to all federal, state and local government web resources and services.